Terminal Aerodrome Forecast
Issued by NWS

Home | Current Version | Previous Version | Graphics & Text | Print | Product List | Glossary On
Versions: 1 2 3 4 5 6 7 8 9 10 11 12 13
000
FTUS42 KMHX 181721
TAFOAJ
TAF
KOAJ 181721Z 1818/1918 21010G18KT P6SM SCT250
     FM190100 21010KT P6SM FEW250 WS020/25040KT
     FM190800 21010KT P6SM FEW250
     FM191400 25013G25KT P6SM SCT060
      AMD LTD TO CLD VIS AND WIND=

USA.gov is the U.S. government's official web portal to all federal, state and local government web resources and services.